sensor_id;sensor_type;location;lat;lon;timestamp;noise_LAeq;noise_LA_min;noise_LA_max;noise_LA01;noise_LA95
41518;Laerm;27249;48.094;-1.690;2022-10-17T00:00:59;44.09;42.03;53.69;;
41518;Laerm;27249;48.094;-1.690;2022-10-17T00:03:25;43.75;41.68;46.50;;
41518;Laerm;27249;48.094;-1.690;2022-10-17T00:05:50;43.98;41.88;48.46;;
41518;Laerm;27249;48.094;-1.690;2022-10-17T00:08:16;46.66;41.61;57.73;;
41518;Laerm;27249;48.094;-1.690;2022-10-17T00:10:41;47.00;41.53;60.15;;
41518;Laerm;27249;48.094;-1.690;2022-10-17T00:13:07;45.55;41.82;56.50;;
41518;Laerm;27249;48.094;-1.690;2022-10-17T00:15:33;43.76;41.46;48.23;;
41518;Laerm;27249;48.094;-1.690;2022-10-17T00:17:58;43.90;40.89;54.14;;
41518;Laerm;27249;48.094;-1.690;2022-10-17T00:20:24;46.35;41.30;57.80;;
41518;Laerm;27249;48.094;-1.690;2022-10-17T00:22:49;47.95;40.43;60.80;;
41518;Laerm;27249;48.094;-1.690;2022-10-17T00:25:14;43.52;40.80;45.39;;
41518;Laerm;27249;48.094;-1.690;2022-10-17T00:27:40;43.85;41.88;45.66;;
41518;Laerm;27249;48.094;-1.690;2022-10-17T00:30:06;47.17;41.61;58.51;;
41518;Laerm;27249;48.094;-1.690;2022-10-17T00:32:32;43.72;41.61;45.17;;
41518;Laerm;27249;48.094;-1.690;2022-10-17T00:34:57;46.57;41.61;57.94;;
41518;Laerm;27249;48.094;-1.690;2022-10-17T00:37:23;45.67;41.14;54.90;;
41518;Laerm;27249;48.094;-1.690;2022-10-17T00:39:48;43.71;41.22;45.39;;
41518;Laerm;27249;48.094;-1.690;2022-10-17T00:42:13;43.89;41.68;47.57;;
41518;Laerm;27249;48.094;-1.690;2022-10-17T00:47:05;48.49;41.89;62.24;;
41518;Laerm;27249;48.094;-1.690;2022-10-17T00:49:33;43.71;41.06;46.28;;
41518;Laerm;27249;48.094;-1.690;2022-10-17T00:52:07;46.86;40.98;60.74;;
41518;Laerm;27249;48.094;-1.690;2022-10-17T00:54:34;45.08;40.89;53.81;;
41518;Laerm;27249;48.094;-1.690;2022-10-17T00:57:01;43.82;40.71;46.20;;
41518;Laerm;27249;48.094;-1.690;2022-10-17T00:59:27;43.83;41.46;47.57;;
41518;Laerm;27249;48.094;-1.690;2022-10-17T01:01:55;43.86;41.53;45.57;;
41518;Laerm;27249;48.094;-1.690;2022-10-17T01:04:23;44.06;41.68;47.77;;
41518;Laerm;27249;48.094;-1.690;2022-10-17T01:06:49;46.89;40.33;59.17;;
41518;Laerm;27249;48.094;-1.690;2022-10-17T01:09:14;43.92;41.38;48.42;;
41518;Laerm;27249;48.094;-1.690;2022-10-17T01:17:06;43.63;40.62;46.25;;
41518;Laerm;27249;48.094;-1.690;2022-10-17T01:27:17;43.89;41.22;46.18;;
41518;Laerm;27249;48.094;-1.690;2022-10-17T01:32:43;44.01;41.75;52.32;;
41518;Laerm;27249;48.094;-1.690;2022-10-17T01:35:15;43.79;41.82;46.35;;
41518;Laerm;27249;48.094;-1.690;2022-10-17T01:37:50;45.90;41.06;58.49;;
41518;Laerm;27249;48.094;-1.690;2022-10-17T01:42:54;47.03;41.14;57.82;;
41518;Laerm;27249;48.094;-1.690;2022-10-17T01:45:29;47.87;42.16;59.17;;
41518;Laerm;27249;48.094;-1.690;2022-10-17T01:47:55;44.81;42.24;50.57;;
41518;Laerm;27249;48.094;-1.690;2022-10-17T01:50:24;45.04;41.89;52.29;;
41518;Laerm;27249;48.094;-1.690;2022-10-17T01:53:12;44.84;42.22;63.31;;
41518;Laerm;27249;48.094;-1.690;2022-10-17T01:55:39;44.37;42.09;52.02;;
41518;Laerm;27249;48.094;-1.690;2022-10-17T01:58:06;44.60;42.35;54.88;;
41518;Laerm;27249;48.094;-1.690;2022-10-17T02:00:33;48.73;42.35;67.21;;
41518;Laerm;27249;48.094;-1.690;2022-10-17T02:03:00;44.56;42.16;55.96;;
41518;Laerm;27249;48.094;-1.690;2022-10-17T02:05:32;47.90;42.47;59.90;;
41518;Laerm;27249;48.094;-1.690;2022-10-17T02:07:59;49.29;42.59;62.47;;
41518;Laerm;27249;48.094;-1.690;2022-10-17T02:10:47;63.18;42.82;73.90;;
41518;Laerm;27249;48.094;-1.690;2022-10-17T02:18:39;47.67;42.76;63.45;;
41518;Laerm;27249;48.094;-1.690;2022-10-17T02:21:06;48.71;42.41;58.10;;
41518;Laerm;27249;48.094;-1.690;2022-10-17T02:23:45;45.28;42.35;53.04;;
41518;Laerm;27249;48.094;-1.690;2022-10-17T02:26:24;44.84;40.71;53.55;;
41518;Laerm;27249;48.094;-1.690;2022-10-17T02:31:23;45.08;42.76;52.44;;
41518;Laerm;27249;48.094;-1.690;2022-10-17T02:34:04;48.98;42.22;63.71;;
41518;Laerm;27249;48.094;-1.690;2022-10-17T02:36:36;49.91;41.61;60.89;;
41518;Laerm;27249;48.094;-1.690;2022-10-17T02:39:03;49.22;42.47;61.91;;
41518;Laerm;27249;48.094;-1.690;2022-10-17T02:41:30;55.14;42.53;71.66;;
41518;Laerm;27249;48.094;-1.690;2022-10-17T02:43:56;50.22;42.71;61.13;;
41518;Laerm;27249;48.094;-1.690;2022-10-17T02:46:22;58.83;43.14;80.43;;
41518;Laerm;27249;48.094;-1.690;2022-10-17T02:49:22;46.51;42.41;57.65;;
41518;Laerm;27249;48.094;-1.690;2022-10-17T02:51:44;46.50;42.41;58.92;;
41518;Laerm;27249;48.094;-1.690;2022-10-17T02:54:27;46.63;42.76;57.43;;
41518;Laerm;27249;48.094;-1.690;2022-10-17T02:56:57;50.36;42.53;62.88;;
41518;Laerm;27249;48.094;-1.690;2022-10-17T02:59:23;52.00;42.59;61.54;;
41518;Laerm;27249;48.094;-1.690;2022-10-17T03:01:50;46.24;42.47;58.62;;
41518;Laerm;27249;48.094;-1.690;2022-10-17T03:04:15;53.44;43.34;67.48;;
41518;Laerm;27249;48.094;-1.690;2022-10-17T03:06:42;48.49;42.41;61.39;;
41518;Laerm;27249;48.094;-1.690;2022-10-17T03:09:08;50.30;42.98;62.73;;
41518;Laerm;27249;48.094;-1.690;2022-10-17T03:11:34;50.64;42.76;60.59;;
41518;Laerm;27249;48.094;-1.690;2022-10-17T03:13:59;50.14;42.22;62.77;;
41518;Laerm;27249;48.094;-1.690;2022-10-17T03:16:24;48.16;42.59;59.90;;
41518;Laerm;27249;48.094;-1.690;2022-10-17T03:18:49;51.73;43.19;64.07;;
41518;Laerm;27249;48.094;-1.690;2022-10-17T03:21:15;45.00;42.59;50.46;;
41518;Laerm;27249;48.094;-1.690;2022-10-17T03:23:40;49.32;42.79;62.60;;
41518;Laerm;27249;48.094;-1.690;2022-10-17T03:26:06;48.86;42.88;60.98;;
41518;Laerm;27249;48.094;-1.690;2022-10-17T03:28:31;46.61;42.59;56.12;;
41518;Laerm;27249;48.094;-1.690;2022-10-17T03:30:56;46.41;43.04;54.16;;
41518;Laerm;27249;48.094;-1.690;2022-10-17T03:33:22;49.54;43.14;59.12;;
41518;Laerm;27249;48.094;-1.690;2022-10-17T03:35:47;54.28;43.34;65.37;;
41518;Laerm;27249;48.094;-1.690;2022-10-17T03:38:12;49.01;43.19;60.65;;
41518;Laerm;27249;48.094;-1.690;2022-10-17T03:40:37;49.61;43.44;59.84;;
41518;Laerm;27249;48.094;-1.690;2022-10-17T03:43:02;52.29;44.01;60.90;;
41518;Laerm;27249;48.094;-1.690;2022-10-17T03:45:28;53.09;43.04;63.61;;
41518;Laerm;27249;48.094;-1.690;2022-10-17T03:47:53;48.64;43.04;57.60;;
41518;Laerm;27249;48.094;-1.690;2022-10-17T03:50:18;48.65;43.42;58.14;;
41518;Laerm;27249;48.094;-1.690;2022-10-17T03:52:47;46.89;43.44;55.28;;
41518;Laerm;27249;48.094;-1.690;2022-10-17T03:55:13;52.11;43.68;64.79;;
41518;Laerm;27249;48.094;-1.690;2022-10-17T03:57:38;53.95;43.63;65.48;;
41518;Laerm;27249;48.094;-1.690;2022-10-17T04:00:03;52.33;43.39;62.99;;
41518;Laerm;27249;48.094;-1.690;2022-10-17T04:02:29;47.61;43.09;56.96;;
41518;Laerm;27249;48.094;-1.690;2022-10-17T04:04:54;49.98;43.44;64.64;;
41518;Laerm;27249;48.094;-1.690;2022-10-17T04:07:19;47.87;43.29;57.30;;
41518;Laerm;27249;48.094;-1.690;2022-10-17T04:09:45;50.77;43.93;58.67;;
41518;Laerm;27249;48.094;-1.690;2022-10-17T04:12:10;52.15;43.49;62.97;;
41518;Laerm;27249;48.094;-1.690;2022-10-17T04:14:35;49.35;43.58;63.39;;
41518;Laerm;27249;48.094;-1.690;2022-10-17T04:17:01;51.91;43.86;65.68;;
41518;Laerm;27249;48.094;-1.690;2022-10-17T04:19:26;49.75;43.63;61.95;;
41518;Laerm;27249;48.094;-1.690;2022-10-17T04:21:51;52.04;44.35;62.96;;
41518;Laerm;27249;48.094;-1.690;2022-10-17T04:24:16;52.83;44.58;62.20;;
41518;Laerm;27249;48.094;-1.690;2022-10-17T04:26:42;50.54;43.99;62.17;;
41518;Laerm;27249;48.094;-1.690;2022-10-17T04:29:07;55.73;45.07;80.80;;
41518;Laerm;27249;48.094;-1.690;2022-10-17T04:31:32;52.72;44.47;65.00;;
41518;Laerm;27249;48.094;-1.690;2022-10-17T04:33:57;54.60;46.52;67.49;;
41518;Laerm;27249;48.094;-1.690;2022-10-17T04:36:23;52.10;44.58;61.68;;
41518;Laerm;27249;48.094;-1.690;2022-10-17T04:38:48;53.32;44.15;63.94;;
41518;Laerm;27249;48.094;-1.690;2022-10-17T04:41:14;52.52;44.94;61.40;;
41518;Laerm;27249;48.094;-1.690;2022-10-17T04:43:41;53.22;44.54;68.03;;
41518;Laerm;27249;48.094;-1.690;2022-10-17T04:46:08;55.73;45.54;65.25;;
41518;Laerm;27249;48.094;-1.690;2022-10-17T04:48:33;53.23;45.66;65.48;;
41518;Laerm;27249;48.094;-1.690;2022-10-17T04:50:59;53.95;46.93;61.35;;
41518;Laerm;27249;48.094;-1.690;2022-10-17T04:53:25;54.41;45.20;63.61;;
41518;Laerm;27249;48.094;-1.690;2022-10-17T04:55:51;56.28;46.43;64.46;;
41518;Laerm;27249;48.094;-1.690;2022-10-17T04:58:16;56.98;47.08;65.00;;
41518;Laerm;27249;48.094;-1.690;2022-10-17T05:00:41;56.24;47.79;63.51;;
41518;Laerm;27249;48.094;-1.690;2022-10-17T05:03:07;52.83;45.17;62.97;;
41518;Laerm;27249;48.094;-1.690;2022-10-17T05:05:32;58.06;49.77;65.91;;
41518;Laerm;27249;48.094;-1.690;2022-10-17T05:07:57;55.48;46.48;63.73;;
41518;Laerm;27249;48.094;-1.690;2022-10-17T05:10:23;55.59;46.80;63.66;;
41518;Laerm;27249;48.094;-1.690;2022-10-17T05:12:48;56.34;46.80;67.00;;
41518;Laerm;27249;48.094;-1.690;2022-10-17T05:15:13;59.62;49.87;67.74;;
41518;Laerm;27249;48.094;-1.690;2022-10-17T05:17:39;58.00;48.12;69.30;;
41518;Laerm;27249;48.094;-1.690;2022-10-17T05:20:04;56.47;48.08;63.19;;
41518;Laerm;27249;48.094;-1.690;2022-10-17T05:22:30;57.64;47.40;66.89;;
41518;Laerm;27249;48.094;-1.690;2022-10-17T05:24:55;59.45;52.41;64.61;;
41518;Laerm;27249;48.094;-1.690;2022-10-17T05:27:21;57.71;51.22;64.18;;
41518;Laerm;27249;48.094;-1.690;2022-10-17T05:29:46;56.46;48.52;61.83;;
41518;Laerm;27249;48.094;-1.690;2022-10-17T05:32:11;58.27;52.40;63.91;;
41518;Laerm;27249;48.094;-1.690;2022-10-17T05:34:36;58.63;52.42;63.97;;
41518;Laerm;27249;48.094;-1.690;2022-10-17T05:37:01;57.58;51.07;63.04;;
41518;Laerm;27249;48.094;-1.690;2022-10-17T05:39:27;58.10;52.37;68.17;;
41518;Laerm;27249;48.094;-1.690;2022-10-17T05:41:52;58.26;52.81;68.98;;
41518;Laerm;27249;48.094;-1.690;2022-10-17T05:44:17;58.97;52.29;65.77;;
41518;Laerm;27249;48.094;-1.690;2022-10-17T05:46:43;57.93;50.31;63.71;;
41518;Laerm;27249;48.094;-1.690;2022-10-17T05:49:11;58.90;53.07;66.57;;
41518;Laerm;27249;48.094;-1.690;2022-10-17T05:51:36;57.43;50.44;69.08;;
41518;Laerm;27249;48.094;-1.690;2022-10-17T05:54:03;58.32;51.66;64.76;;
41518;Laerm;27249;48.094;-1.690;2022-10-17T05:56:28;57.62;51.97;63.50;;
41518;Laerm;27249;48.094;-1.690;2022-10-17T05:58:54;59.55;50.92;69.17;;
41518;Laerm;27249;48.094;-1.690;2022-10-17T06:01:19;58.95;51.00;64.53;;
41518;Laerm;27249;48.094;-1.690;2022-10-17T06:03:44;57.05;52.42;62.95;;
41518;Laerm;27249;48.094;-1.690;2022-10-17T06:06:10;57.79;51.48;64.15;;
41518;Laerm;27249;48.094;-1.690;2022-10-17T06:08:36;57.11;49.63;63.91;;
41518;Laerm;27249;48.094;-1.690;2022-10-17T06:11:01;58.57;54.09;67.11;;
41518;Laerm;27249;48.094;-1.690;2022-10-17T06:13:26;59.27;49.34;73.66;;
41518;Laerm;27249;48.094;-1.690;2022-10-17T06:15:52;57.56;50.53;62.92;;
41518;Laerm;27249;48.094;-1.690;2022-10-17T06:18:17;58.56;54.48;63.47;;
41518;Laerm;27249;48.094;-1.690;2022-10-17T06:20:42;58.79;51.59;69.87;;
41518;Laerm;27249;48.094;-1.690;2022-10-17T06:23:07;56.78;52.13;66.55;;
41518;Laerm;27249;48.094;-1.690;2022-10-17T06:25:33;56.65;50.75;65.40;;
41518;Laerm;27249;48.094;-1.690;2022-10-17T06:27:58;57.18;49.74;65.12;;
41518;Laerm;27249;48.094;-1.690;2022-10-17T06:30:23;58.33;49.03;71.16;;
41518;Laerm;27249;48.094;-1.690;2022-10-17T06:32:50;57.16;52.07;64.29;;
41518;Laerm;27249;48.094;-1.690;2022-10-17T06:35:15;57.21;53.22;62.37;;
41518;Laerm;27249;48.094;-1.690;2022-10-17T06:37:40;58.33;54.23;64.86;;
41518;Laerm;27249;48.094;-1.690;2022-10-17T06:40:06;58.86;52.49;67.40;;
41518;Laerm;27249;48.094;-1.690;2022-10-17T06:42:33;57.03;52.75;61.60;;
41518;Laerm;27249;48.094;-1.690;2022-10-17T06:44:58;56.86;51.42;64.77;;
41518;Laerm;27249;48.094;-1.690;2022-10-17T06:47:23;59.67;53.24;64.61;;
41518;Laerm;27249;48.094;-1.690;2022-10-17T06:49:48;57.51;52.19;64.54;;
41518;Laerm;27249;48.094;-1.690;2022-10-17T06:52:14;57.50;52.98;62.95;;
41518;Laerm;27249;48.094;-1.690;2022-10-17T06:54:41;58.31;52.58;68.86;;
41518;Laerm;27249;48.094;-1.690;2022-10-17T06:57:06;57.21;48.71;64.44;;
41518;Laerm;27249;48.094;-1.690;2022-10-17T06:59:32;56.81;49.66;62.02;;
41518;Laerm;27249;48.094;-1.690;2022-10-17T07:01:57;57.66;51.76;64.80;;
41518;Laerm;27249;48.094;-1.690;2022-10-17T07:04:22;57.17;47.54;62.88;;
41518;Laerm;27249;48.094;-1.690;2022-10-17T07:06:47;58.44;52.26;64.23;;
41518;Laerm;27249;48.094;-1.690;2022-10-17T07:09:13;56.51;50.10;67.35;;
41518;Laerm;27249;48.094;-1.690;2022-10-17T07:11:38;55.65;50.25;70.94;;
41518;Laerm;27249;48.094;-1.690;2022-10-17T07:14:04;56.73;50.12;62.33;;
41518;Laerm;27249;48.094;-1.690;2022-10-17T07:16:29;57.03;47.57;63.00;;
41518;Laerm;27249;48.094;-1.690;2022-10-17T07:18:54;57.94;49.11;75.04;;
41518;Laerm;27249;48.094;-1.690;2022-10-17T07:21:20;56.79;49.63;66.08;;
41518;Laerm;27249;48.094;-1.690;2022-10-17T07:23:45;56.26;49.62;65.99;;
41518;Laerm;27249;48.094;-1.690;2022-10-17T07:26:11;55.96;48.07;68.70;;
41518;Laerm;27249;48.094;-1.690;2022-10-17T07:28:37;56.88;50.93;61.70;;
41518;Laerm;27249;48.094;-1.690;2022-10-17T07:31:08;57.39;50.15;64.66;;
41518;Laerm;27249;48.094;-1.690;2022-10-17T07:33:33;59.99;47.74;72.34;;
41518;Laerm;27249;48.094;-1.690;2022-10-17T07:35:59;57.62;49.84;66.42;;
41518;Laerm;27249;48.094;-1.690;2022-10-17T07:38:24;57.24;51.47;63.54;;
41518;Laerm;27249;48.094;-1.690;2022-10-17T07:40:56;56.94;47.68;65.48;;
41518;Laerm;27249;48.094;-1.690;2022-10-17T07:43:22;55.91;49.90;61.98;;
41518;Laerm;27249;48.094;-1.690;2022-10-17T07:45:48;55.32;48.18;62.91;;
41518;Laerm;27249;48.094;-1.690;2022-10-17T07:48:13;56.09;46.07;64.92;;
41518;Laerm;27249;48.094;-1.690;2022-10-17T07:50:39;56.41;50.43;62.68;;
41518;Laerm;27249;48.094;-1.690;2022-10-17T07:53:04;57.11;48.03;65.24;;
41518;Laerm;27249;48.094;-1.690;2022-10-17T07:55:29;55.86;47.36;63.21;;
41518;Laerm;27249;48.094;-1.690;2022-10-17T07:57:55;56.48;50.22;62.58;;
41518;Laerm;27249;48.094;-1.690;2022-10-17T08:00:21;56.99;49.47;66.10;;
41518;Laerm;27249;48.094;-1.690;2022-10-17T08:02:46;56.68;49.91;62.93;;
41518;Laerm;27249;48.094;-1.690;2022-10-17T08:05:12;62.75;51.34;73.57;;
41518;Laerm;27249;48.094;-1.690;2022-10-17T08:07:37;55.18;47.88;62.79;;
41518;Laerm;27249;48.094;-1.690;2022-10-17T08:10:03;56.73;49.11;65.19;;
41518;Laerm;27249;48.094;-1.690;2022-10-17T08:12:28;58.60;53.81;64.89;;
41518;Laerm;27249;48.094;-1.690;2022-10-17T08:14:56;58.45;46.89;69.41;;
41518;Laerm;27249;48.094;-1.690;2022-10-17T08:17:21;57.56;50.37;63.42;;
41518;Laerm;27249;48.094;-1.690;2022-10-17T08:19:46;62.90;49.87;88.45;;
41518;Laerm;27249;48.094;-1.690;2022-10-17T08:22:12;57.60;51.44;65.90;;
41518;Laerm;27249;48.094;-1.690;2022-10-17T08:24:37;56.24;48.15;63.66;;
41518;Laerm;27249;48.094;-1.690;2022-10-17T08:27:02;57.07;49.64;63.72;;
41518;Laerm;27249;48.094;-1.690;2022-10-17T08:29:35;58.62;51.17;72.01;;
41518;Laerm;27249;48.094;-1.690;2022-10-17T08:32:00;56.83;49.78;62.00;;
41518;Laerm;27249;48.094;-1.690;2022-10-17T08:34:25;56.90;51.47;64.94;;
41518;Laerm;27249;48.094;-1.690;2022-10-17T08:36:50;55.93;50.40;60.73;;
41518;Laerm;27249;48.094;-1.690;2022-10-17T08:39:16;56.86;50.81;62.49;;
41518;Laerm;27249;48.094;-1.690;2022-10-17T08:42:02;56.69;49.60;63.10;;
41518;Laerm;27249;48.094;-1.690;2022-10-17T08:47:13;56.43;49.39;63.99;;
41518;Laerm;27249;48.094;-1.690;2022-10-17T08:49:53;57.32;47.36;68.00;;
41518;Laerm;27249;48.094;-1.690;2022-10-17T08:55:21;54.78;48.18;61.21;;
41518;Laerm;27249;48.094;-1.690;2022-10-17T08:57:50;56.40;50.33;65.35;;
41518;Laerm;27249;48.094;-1.690;2022-10-17T09:00:16;56.84;49.27;66.16;;
41518;Laerm;27249;48.094;-1.690;2022-10-17T09:02:47;55.47;48.60;65.36;;
41518;Laerm;27249;48.094;-1.690;2022-10-17T09:05:31;56.16;50.23;62.58;;
41518;Laerm;27249;48.094;-1.690;2022-10-17T09:08:01;56.08;46.45;63.83;;
41518;Laerm;27249;48.094;-1.690;2022-10-17T09:13:21;55.74;46.28;65.51;;
41518;Laerm;27249;48.094;-1.690;2022-10-17T09:20:43;57.14;49.58;64.88;;
41518;Laerm;27249;48.094;-1.690;2022-10-17T09:23:53;57.81;50.00;65.39;;
41518;Laerm;27249;48.094;-1.690;2022-10-17T09:25:58;58.15;51.08;66.82;;
41518;Laerm;27249;48.094;-1.690;2022-10-17T09:28:29;56.74;49.45;64.56;;
41518;Laerm;27249;48.094;-1.690;2022-10-17T09:33:25;56.31;49.79;67.08;;
41518;Laerm;27249;48.094;-1.690;2022-10-17T09:35:52;57.23;50.93;64.30;;
41518;Laerm;27249;48.094;-1.690;2022-10-17T09:38:19;57.21;46.71;66.99;;
41518;Laerm;27249;48.094;-1.690;2022-10-17T09:40:45;57.84;52.66;64.67;;
41518;Laerm;27249;48.094;-1.690;2022-10-17T09:43:13;56.55;50.16;64.20;;
41518;Laerm;27249;48.094;-1.690;2022-10-17T09:45:53;57.16;49.62;65.55;;
41518;Laerm;27249;48.094;-1.690;2022-10-17T09:48:36;56.95;49.28;65.02;;
41518;Laerm;27249;48.094;-1.690;2022-10-17T09:53:37;56.41;50.13;64.90;;
41518;Laerm;27249;48.094;-1.690;2022-10-17T09:56:12;58.08;52.43;66.33;;
41518;Laerm;27249;48.094;-1.690;2022-10-17T09:58:43;57.87;48.92;70.97;;
41518;Laerm;27249;48.094;-1.690;2022-10-17T10:06:31;57.20;51.62;64.26;;
41518;Laerm;27249;48.094;-1.690;2022-10-17T10:08:56;58.80;50.20;68.57;;
41518;Laerm;27249;48.094;-1.690;2022-10-17T10:14:10;59.09;51.13;68.28;;
41518;Laerm;27249;48.094;-1.690;2022-10-17T10:16:40;60.40;50.23;72.88;;
41518;Laerm;27249;48.094;-1.690;2022-10-17T10:19:10;57.84;52.02;75.17;;
41518;Laerm;27249;48.094;-1.690;2022-10-17T10:21:53;57.03;47.91;64.53;;
41518;Laerm;27249;48.094;-1.690;2022-10-17T10:24:18;56.61;51.50;61.27;;
41518;Laerm;27249;48.094;-1.690;2022-10-17T10:26:47;58.58;49.50;70.26;;
41518;Laerm;27249;48.094;-1.690;2022-10-17T10:29:19;56.75;50.88;68.20;;
41518;Laerm;27249;48.094;-1.690;2022-10-17T10:31:45;56.38;50.71;63.40;;
41518;Laerm;27249;48.094;-1.690;2022-10-17T10:34:21;57.11;47.84;64.74;;
41518;Laerm;27249;48.094;-1.690;2022-10-17T10:36:49;55.04;49.28;61.07;;
41518;Laerm;27249;48.094;-1.690;2022-10-17T10:39:39;57.75;49.47;74.29;;
41518;Laerm;27249;48.094;-1.690;2022-10-17T10:42:02;56.84;50.21;64.01;;
41518;Laerm;27249;48.094;-1.690;2022-10-17T10:44:28;56.12;49.77;62.99;;
41518;Laerm;27249;48.094;-1.690;2022-10-17T10:47:08;57.40;51.08;70.14;;
41518;Laerm;27249;48.094;-1.690;2022-10-17T10:49:33;55.71;49.41;61.46;;
41518;Laerm;27249;48.094;-1.690;2022-10-17T10:51:59;57.71;49.93;64.80;;
41518;Laerm;27249;48.094;-1.690;2022-10-17T10:54:28;57.43;50.36;72.95;;
41518;Laerm;27249;48.094;-1.690;2022-10-17T10:56:57;55.84;46.05;62.95;;
41518;Laerm;27249;48.094;-1.690;2022-10-17T10:59:34;60.26;48.80;80.26;;
41518;Laerm;27249;48.094;-1.690;2022-10-17T11:07:24;54.91;45.54;62.42;;
41518;Laerm;27249;48.094;-1.690;2022-10-17T11:12:32;56.26;48.26;63.09;;
41518;Laerm;27249;48.094;-1.690;2022-10-17T11:22:57;56.54;47.81;62.10;;
41518;Laerm;27249;48.094;-1.690;2022-10-17T11:25:33;58.62;50.44;67.30;;
41518;Laerm;27249;48.094;-1.690;2022-10-17T11:27:59;55.91;48.13;62.36;;
41518;Laerm;27249;48.094;-1.690;2022-10-17T11:30:26;58.15;51.81;65.31;;
41518;Laerm;27249;48.094;-1.690;2022-10-17T11:32:54;57.07;48.63;70.28;;
41518;Laerm;27249;48.094;-1.690;2022-10-17T11:38:06;56.53;49.97;62.75;;
41518;Laerm;27249;48.094;-1.690;2022-10-17T11:40:38;57.36;49.49;64.16;;
41518;Laerm;27249;48.094;-1.690;2022-10-17T11:43:07;59.71;49.50;73.46;;
41518;Laerm;27249;48.094;-1.690;2022-10-17T11:45:35;57.52;46.55;69.29;;
41518;Laerm;27249;48.094;-1.690;2022-10-17T11:48:13;57.91;51.72;63.04;;
41518;Laerm;27249;48.094;-1.690;2022-10-17T11:50:45;59.02;48.23;72.75;;
41518;Laerm;27249;48.094;-1.690;2022-10-17T11:53:13;60.43;52.59;74.57;;
41518;Laerm;27249;48.094;-1.690;2022-10-17T11:55:38;58.08;51.59;65.10;;
41518;Laerm;27249;48.094;-1.690;2022-10-17T12:08:29;57.07;47.20;67.61;;
41518;Laerm;27249;48.094;-1.690;2022-10-17T12:11:00;56.73;48.74;62.59;;
41518;Laerm;27249;48.094;-1.690;2022-10-17T12:15:56;57.31;50.04;63.46;;
41518;Laerm;27249;48.094;-1.690;2022-10-17T12:18:22;56.37;48.98;64.28;;
41518;Laerm;27249;48.094;-1.690;2022-10-17T12:20:58;56.52;48.85;66.75;;
41518;Laerm;27249;48.094;-1.690;2022-10-17T12:23:33;57.02;50.28;63.41;;
41518;Laerm;27249;48.094;-1.690;2022-10-17T12:26:01;55.89;49.36;64.46;;
41518;Laerm;27249;48.094;-1.690;2022-10-17T12:30:59;56.38;49.64;64.99;;
41518;Laerm;27249;48.094;-1.690;2022-10-17T12:38:36;55.51;47.00;62.46;;
41518;Laerm;27249;48.094;-1.690;2022-10-17T12:41:02;56.90;48.21;65.30;;
41518;Laerm;27249;48.094;-1.690;2022-10-17T12:53:28;56.95;48.61;70.58;;
41518;Laerm;27249;48.094;-1.690;2022-10-17T12:55:58;55.54;48.61;60.58;;
41518;Laerm;27249;48.094;-1.690;2022-10-17T12:58:24;56.46;49.98;63.43;;
41518;Laerm;27249;48.094;-1.690;2022-10-17T13:00:50;56.32;49.36;63.37;;
41518;Laerm;27249;48.094;-1.690;2022-10-17T13:03:17;55.87;48.88;63.14;;
41518;Laerm;27249;48.094;-1.690;2022-10-17T13:05:45;55.71;46.15;64.94;;
41518;Laerm;27249;48.094;-1.690;2022-10-17T13:08:33;55.12;46.48;66.34;;
41518;Laerm;27249;48.094;-1.690;2022-10-17T13:10:56;57.72;51.51;74.84;;
41518;Laerm;27249;48.094;-1.690;2022-10-17T13:13:22;56.59;47.79;62.55;;
41518;Laerm;27249;48.094;-1.690;2022-10-17T13:15:51;56.55;51.43;63.70;;
41518;Laerm;27249;48.094;-1.690;2022-10-17T13:18:21;56.50;49.40;64.67;;
41518;Laerm;27249;48.094;-1.690;2022-10-17T13:20:57;57.19;49.28;64.28;;
41518;Laerm;27249;48.094;-1.690;2022-10-17T13:23:24;58.35;50.41;71.24;;
41518;Laerm;27249;48.094;-1.690;2022-10-17T13:26:07;56.23;45.51;62.75;;
41518;Laerm;27249;48.094;-1.690;2022-10-17T13:28:36;57.54;51.93;64.27;;
41518;Laerm;27249;48.094;-1.690;2022-10-17T13:31:01;57.83;53.40;64.59;;
41518;Laerm;27249;48.094;-1.690;2022-10-17T13:33:30;57.20;51.63;65.25;;
41518;Laerm;27249;48.094;-1.690;2022-10-17T13:35:56;59.90;52.60;82.05;;
41518;Laerm;27249;48.094;-1.690;2022-10-17T13:38:31;58.22;53.40;67.28;;
41518;Laerm;27249;48.094;-1.690;2022-10-17T13:40:57;59.28;53.79;69.04;;
41518;Laerm;27249;48.094;-1.690;2022-10-17T13:43:23;58.52;52.75;69.49;;
41518;Laerm;27249;48.094;-1.690;2022-10-17T13:45:52;57.06;49.40;67.38;;
41518;Laerm;27249;48.094;-1.690;2022-10-17T13:48:27;57.93;49.49;67.49;;
41518;Laerm;27249;48.094;-1.690;2022-10-17T13:50:55;56.63;50.10;64.74;;
41518;Laerm;27249;48.094;-1.690;2022-10-17T13:55:57;55.78;45.89;64.05;;
41518;Laerm;27249;48.094;-1.690;2022-10-17T13:58:23;57.31;48.51;67.71;;
41518;Laerm;27249;48.094;-1.690;2022-10-17T14:00:49;56.00;50.01;62.82;;
41518;Laerm;27249;48.094;-1.690;2022-10-17T14:03:19;57.53;51.29;62.70;;
41518;Laerm;27249;48.094;-1.690;2022-10-17T14:08:28;56.50;50.66;62.56;;
41518;Laerm;27249;48.094;-1.690;2022-10-17T14:10:55;56.70;50.89;67.42;;
41518;Laerm;27249;48.094;-1.690;2022-10-17T14:13:22;56.28;51.46;62.77;;
41518;Laerm;27249;48.094;-1.690;2022-10-17T14:15:48;56.67;48.98;65.92;;
41518;Laerm;27249;48.094;-1.690;2022-10-17T14:18:16;56.84;51.97;63.72;;
41518;Laerm;27249;48.094;-1.690;2022-10-17T14:20:45;58.14;49.71;72.87;;
41518;Laerm;27249;48.094;-1.690;2022-10-17T14:26:06;57.11;50.96;71.40;;
41518;Laerm;27249;48.094;-1.690;2022-10-17T14:28:31;56.64;52.44;63.42;;
41518;Laerm;27249;48.094;-1.690;2022-10-17T14:33:42;57.99;49.19;69.62;;
41518;Laerm;27249;48.094;-1.690;2022-10-17T14:36:08;56.95;49.60;63.90;;
41518;Laerm;27249;48.094;-1.690;2022-10-17T14:38:33;56.02;48.74;70.14;;
41518;Laerm;27249;48.094;-1.690;2022-10-17T14:41:00;57.38;50.21;67.18;;
41518;Laerm;27249;48.094;-1.690;2022-10-17T14:43:27;64.62;49.03;82.56;;
41518;Laerm;27249;48.094;-1.690;2022-10-17T14:45:55;56.34;49.24;62.84;;
41518;Laerm;27249;48.094;-1.690;2022-10-17T14:48:21;57.59;50.25;67.87;;
41518;Laerm;27249;48.094;-1.690;2022-10-17T14:56:40;57.17;50.83;68.15;;
41518;Laerm;27249;48.094;-1.690;2022-10-17T14:59:05;56.72;50.52;71.20;;
41518;Laerm;27249;48.094;-1.690;2022-10-17T15:01:32;55.36;48.78;61.64;;
41518;Laerm;27249;48.094;-1.690;2022-10-17T15:04:07;56.30;51.54;62.13;;
41518;Laerm;27249;48.094;-1.690;2022-10-17T15:06:34;56.59;50.04;65.61;;
41518;Laerm;27249;48.094;-1.690;2022-10-17T15:09:00;56.00;49.96;63.94;;
41518;Laerm;27249;48.094;-1.690;2022-10-17T15:11:25;68.47;52.48;81.76;;
41518;Laerm;27249;48.094;-1.690;2022-10-17T15:13:51;57.48;51.88;65.12;;
41518;Laerm;27249;48.094;-1.690;2022-10-17T15:16:17;58.07;51.99;65.77;;
41518;Laerm;27249;48.094;-1.690;2022-10-17T15:18:43;56.92;51.72;62.36;;
41518;Laerm;27249;48.094;-1.690;2022-10-17T15:21:12;57.63;52.51;62.91;;
41518;Laerm;27249;48.094;-1.690;2022-10-17T15:23:38;57.18;51.73;63.88;;
41518;Laerm;27249;48.094;-1.690;2022-10-17T15:26:07;57.17;50.10;62.84;;
41518;Laerm;27249;48.094;-1.690;2022-10-17T15:28:35;58.83;51.89;72.24;;
41518;Laerm;27249;48.094;-1.690;2022-10-17T15:31:01;57.91;52.02;67.29;;
41518;Laerm;27249;48.094;-1.690;2022-10-17T15:33:26;56.88;51.20;64.04;;
41518;Laerm;27249;48.094;-1.690;2022-10-17T15:35:51;56.56;51.21;65.91;;